createdAt,value
2023-04-05T00:02:24.009Z,8.57
2023-04-05T00:04:51.496Z,8.55
2023-04-05T00:07:18.427Z,8.52
2023-04-05T00:09:44.677Z,8.50
2023-04-05T00:12:11.427Z,8.52
2023-04-05T00:14:37.884Z,8.51
2023-04-05T00:17:04.458Z,8.46
2023-04-05T00:19:33.245Z,8.45
2023-04-05T00:21:59.844Z,8.44
2023-04-05T00:24:28.789Z,8.44
2023-04-05T00:26:56.168Z,8.46
2023-04-05T00:29:22.432Z,8.46
2023-04-05T00:31:48.890Z,8.46
2023-04-05T00:34:15.269Z,8.45
2023-04-05T00:36:43.756Z,8.41
2023-04-05T00:39:10.140Z,8.36
2023-04-05T00:41:36.481Z,8.29
2023-04-05T00:44:03.302Z,8.28
2023-04-05T00:46:34.281Z,8.26
2023-04-05T00:49:00.847Z,8.25
2023-04-05T00:51:27.080Z,8.25
2023-04-05T00:53:54.505Z,8.21
2023-04-05T00:56:21.178Z,8.17
2023-04-05T00:58:51.197Z,8.14
2023-04-05T01:01:21.672Z,8.10
2023-04-05T01:04:06.703Z,8.10
2023-04-05T01:06:34.075Z,8.12
2023-04-05T01:09:05.867Z,8.13
2023-04-05T01:11:32.793Z,8.10
2023-04-05T01:13:59.839Z,8.08
2023-04-05T01:16:26.673Z,8.08
2023-04-05T01:18:57.976Z,8.10
2023-04-05T01:21:33.670Z,8.14
2023-04-05T01:24:26.298Z,8.16
2023-04-05T01:27:01.656Z,8.11
2023-04-05T01:29:31.513Z,8.09
2023-04-05T01:32:16.647Z,8.08
2023-04-05T01:34:47.948Z,8.10
2023-04-05T01:37:15.709Z,8.10
2023-04-05T01:39:42.489Z,8.10
2023-04-05T01:42:08.679Z,8.11
2023-04-05T01:44:36.103Z,8.11
2023-04-05T01:47:02.427Z,8.15
2023-04-05T01:49:28.756Z,8.17
2023-04-05T01:51:55.684Z,8.19
2023-04-05T01:54:21.996Z,8.17
2023-04-05T01:56:48.435Z,8.15
2023-04-05T01:59:14.776Z,8.14
2023-04-05T02:01:41.294Z,8.15
2023-04-05T02:04:08.334Z,8.13
2023-04-05T02:06:41.210Z,8.14
2023-04-05T02:09:08.797Z,8.13
2023-04-05T02:11:35.232Z,8.11
2023-04-05T02:14:06.930Z,8.08
2023-04-05T02:16:33.664Z,8.06
2023-04-05T02:19:00.125Z,8.04
2023-04-05T02:21:31.298Z,8.02
2023-04-05T02:23:57.488Z,8.00
2023-04-05T02:26:23.968Z,7.98
2023-04-05T02:28:50.355Z,7.93
2023-04-05T02:31:16.861Z,7.87
2023-04-05T02:33:43.221Z,7.78
2023-04-05T02:36:11.112Z,7.69
2023-04-05T02:38:37.675Z,7.56
2023-04-05T02:41:04.132Z,7.47
2023-04-05T02:43:30.481Z,7.37
2023-04-05T02:45:56.940Z,7.34
2023-04-05T02:48:24.245Z,7.30
2023-04-05T02:50:51.445Z,7.26
2023-04-05T02:53:18.239Z,7.22
2023-04-05T02:55:54.371Z,7.21
2023-04-05T02:58:23.464Z,7.21
2023-04-05T03:00:55.615Z,7.20
2023-04-05T03:03:30.062Z,7.21
2023-04-05T03:05:59.879Z,7.24
2023-04-05T03:08:28.146Z,7.28
2023-04-05T03:11:01.132Z,7.32
2023-04-05T03:13:29.187Z,7.33
2023-04-05T03:15:56.258Z,7.35
2023-04-05T03:18:25.252Z,7.37
2023-04-05T03:20:58.234Z,7.37
2023-04-05T03:23:30.165Z,7.40
2023-04-05T03:26:00.121Z,7.40
2023-04-05T03:28:27.253Z,7.39
2023-04-05T03:30:55.624Z,7.39
2023-04-05T03:33:21.991Z,7.41
2023-04-05T03:35:50.395Z,7.42
2023-04-05T03:38:17.217Z,7.45
2023-04-05T03:40:52.133Z,7.46
2023-04-05T03:43:20.383Z,7.47
2023-04-05T03:45:46.766Z,7.46
2023-04-05T03:48:13.959Z,7.45
2023-04-05T03:50:41.368Z,7.46
2023-04-05T03:53:12.010Z,7.49
2023-04-05T03:55:39.711Z,7.49
2023-04-05T03:58:06.358Z,7.47
2023-04-05T04:00:37.029Z,7.45
2023-04-05T04:03:15.497Z,7.44
2023-04-05T04:05:47.422Z,7.45
2023-04-05T04:08:15.775Z,7.43
2023-04-05T04:10:41.970Z,7.38
2023-04-05T04:13:19.122Z,7.34
2023-04-05T04:15:50.094Z,7.35
2023-04-05T04:18:37.034Z,7.38
2023-04-05T04:21:24.195Z,7.42
2023-04-05T04:24:01.933Z,7.44
2023-04-05T04:26:53.953Z,7.50
2023-04-05T04:29:46.079Z,7.55
2023-04-05T04:32:26.173Z,7.60
2023-04-05T04:35:10.331Z,7.65
2023-04-05T04:37:59.291Z,7.69
2023-04-05T04:40:50.233Z,7.75
2023-04-05T04:43:36.697Z,7.79
2023-04-05T04:46:42.096Z,7.84
2023-04-05T04:49:29.669Z,7.93
2023-04-05T04:51:58.872Z,8.03
2023-04-05T04:54:25.502Z,8.15
2023-04-05T04:56:52.204Z,8.28
2023-04-05T04:59:18.538Z,8.41
2023-04-05T05:01:45.719Z,8.54
2023-04-05T05:04:12.454Z,8.68
2023-04-05T05:06:40.961Z,8.82
2023-04-05T05:09:07.458Z,8.93
2023-04-05T05:11:38.931Z,9.03
2023-04-05T05:14:07.535Z,9.10
2023-04-05T05:16:34.007Z,9.16
2023-04-05T05:19:04.311Z,9.25
2023-04-05T05:21:39.773Z,9.35
2023-04-05T05:24:09.389Z,9.37
2023-04-05T05:26:37.496Z,9.43
2023-04-05T05:29:03.786Z,9.54
2023-04-05T05:31:33.667Z,9.63
2023-04-05T05:34:00.039Z,9.64
2023-04-05T05:36:27.721Z,9.66
2023-04-05T05:38:54.122Z,9.70
2023-04-05T05:41:21.707Z,9.79
2023-04-05T05:43:48.138Z,9.91
2023-04-05T05:46:14.483Z,9.97
2023-04-05T05:48:42.190Z,10.10
2023-04-05T05:51:11.066Z,10.27
2023-04-05T05:53:38.202Z,10.42
2023-04-05T05:56:05.316Z,10.54
2023-04-05T05:58:32.077Z,10.61
2023-04-05T06:00:58.511Z,10.67
2023-04-05T06:03:25.806Z,10.74
2023-04-05T06:05:52.885Z,10.90
2023-04-05T06:08:19.314Z,11.18
2023-04-05T06:10:45.542Z,11.44
2023-04-05T06:13:11.972Z,11.71
2023-04-05T06:15:38.302Z,12.00
2023-04-05T06:18:06.885Z,12.28
2023-04-05T06:20:33.540Z,12.45
2023-04-05T06:23:01.338Z,12.45
2023-04-05T06:25:28.169Z,12.61
2023-04-05T06:27:54.396Z,12.89
2023-04-05T06:30:20.908Z,13.26
2023-04-05T06:32:49.825Z,13.58
2023-04-05T06:35:16.384Z,13.93
2023-04-05T06:37:44.656Z,14.20
2023-04-05T06:40:11.123Z,14.29
2023-04-05T06:42:38.013Z,14.33
2023-04-05T06:45:05.694Z,14.44
2023-04-05T06:47:35.638Z,14.56
2023-04-05T06:50:02.868Z,14.64
2023-04-05T06:52:29.387Z,14.78
2023-04-05T06:54:56.077Z,14.89
2023-04-05T06:59:44.149Z,14.93
2023-04-05T07:02:11.589Z,15.03
2023-04-05T07:04:39.632Z,15.10
2023-04-05T07:07:07.328Z,15.19
2023-04-05T07:09:34.783Z,15.13
2023-04-05T07:12:06.185Z,15.21
2023-04-05T07:14:34.189Z,15.47
2023-04-05T07:17:01.648Z,15.74
2023-04-05T07:19:28.798Z,16.00
2023-04-05T07:21:56.311Z,16.23
2023-04-05T07:24:23.406Z,16.24
2023-04-05T07:26:50.969Z,16.25
2023-04-05T07:29:24.180Z,16.47
2023-04-05T07:31:51.474Z,16.54
2023-04-05T07:34:18.866Z,16.55
2023-04-05T07:36:47.343Z,16.59
2023-04-05T07:39:14.653Z,16.68
2023-04-05T07:41:43.102Z,17.01
2023-04-05T07:44:14.018Z,16.88
2023-04-05T07:46:47.552Z,16.63
2023-04-05T07:49:15.785Z,16.77
2023-04-05T07:51:43.670Z,17.14
2023-04-05T07:54:10.912Z,17.26
2023-04-05T07:56:39.717Z,17.19
2023-04-05T07:59:07.040Z,17.20
2023-04-05T08:01:34.400Z,17.21
2023-04-05T08:04:01.679Z,17.07
2023-04-05T08:06:29.192Z,16.95
2023-04-05T08:08:56.288Z,16.93
2023-04-05T08:11:23.290Z,16.89
2023-04-05T08:13:50.785Z,16.94
2023-04-05T08:16:18.225Z,17.03
2023-04-05T08:18:47.836Z,17.04
2023-04-05T08:21:15.056Z,17.02
2023-04-05T08:23:42.863Z,17.16
2023-04-05T08:26:10.153Z,17.33
2023-04-05T08:28:37.251Z,17.52
2023-04-05T08:31:04.537Z,17.56
2023-04-05T08:33:35.092Z,17.42
2023-04-05T08:36:06.540Z,17.21
2023-04-05T08:38:33.543Z,17.16
2023-04-05T08:41:08.461Z,17.02
2023-04-05T08:43:46.081Z,16.79
2023-04-05T08:46:15.211Z,16.62
2023-04-05T08:48:42.854Z,16.47
2023-04-05T08:51:10.012Z,16.49
2023-04-05T08:53:37.149Z,16.55
2023-04-05T08:56:04.528Z,16.67
2023-04-05T08:58:34.252Z,16.70
2023-04-05T09:01:01.682Z,16.55
2023-04-05T09:03:40.524Z,16.48
2023-04-05T09:06:08.705Z,16.40
2023-04-05T09:08:35.716Z,16.25
2023-04-05T09:11:03.422Z,16.06
2023-04-05T09:13:31.624Z,15.96
2023-04-05T09:16:01.327Z,15.87
2023-04-05T09:18:30.150Z,15.81
2023-04-05T09:21:03.871Z,15.78
2023-04-05T09:23:37.501Z,15.78
2023-04-05T09:26:21.846Z,15.85
2023-04-05T09:28:51.987Z,15.79
2023-04-05T09:31:35.996Z,15.67
2023-04-05T09:34:09.166Z,15.69
2023-04-05T09:36:43.934Z,15.72
2023-04-05T09:39:11.221Z,15.60
2023-04-05T09:41:39.484Z,15.46
2023-04-05T09:44:06.494Z,15.41
2023-04-05T09:46:37.984Z,15.44
2023-04-05T09:49:08.012Z,15.54
2023-04-05T09:51:36.469Z,15.65
2023-04-05T09:54:09.634Z,15.77
2023-04-05T09:56:38.615Z,15.86
2023-04-05T09:59:12.719Z,15.94
2023-04-05T10:01:43.905Z,16.11
2023-04-05T10:04:11.770Z,16.24
2023-04-05T10:06:40.201Z,16.25
2023-04-05T10:09:09.746Z,16.27
2023-04-05T10:11:37.633Z,16.35
2023-04-05T10:14:07.105Z,16.45
2023-04-05T10:16:50.831Z,16.53
2023-04-05T10:19:26.097Z,16.62
2023-04-05T10:21:54.414Z,16.67
2023-04-05T10:24:27.441Z,16.73
2023-04-05T10:27:06.571Z,16.76
2023-04-05T10:29:47.087Z,16.72
2023-04-05T10:32:17.395Z,16.67
2023-04-05T10:34:49.266Z,16.67
2023-04-05T10:37:36.635Z,16.68
2023-04-05T10:40:04.388Z,16.66
2023-04-05T10:42:41.042Z,16.70
2023-04-05T10:45:15.552Z,16.73
2023-04-05T10:47:49.471Z,16.73
2023-04-05T10:50:25.572Z,16.72
2023-04-05T10:52:53.745Z,16.72
2023-04-05T10:55:21.845Z,16.79
2023-04-05T10:57:49.285Z,16.81
2023-04-05T11:00:16.996Z,16.85
2023-04-05T11:02:50.238Z,16.89
2023-04-05T11:05:31.689Z,16.92
2023-04-05T11:08:08.219Z,16.96
2023-04-05T11:10:36.647Z,16.94
2023-04-05T11:13:08.873Z,16.93
2023-04-05T11:15:36.302Z,16.97
2023-04-05T11:18:08.766Z,17.02
2023-04-05T11:20:47.140Z,17.04
2023-04-05T11:23:15.881Z,17.16
2023-04-05T11:25:48.074Z,17.29
2023-04-05T11:28:32.026Z,17.43
2023-04-05T11:31:13.088Z,17.46
2023-04-05T11:34:00.270Z,17.34
2023-04-05T11:36:46.155Z,17.30
2023-04-05T11:39:23.236Z,17.36
2023-04-05T11:42:02.134Z,17.41
2023-04-05T11:44:32.087Z,17.43
2023-04-05T11:46:59.986Z,17.44
2023-04-05T11:49:27.014Z,17.43
2023-04-05T11:51:54.671Z,17.38
2023-04-05T11:54:34.113Z,17.38
2023-04-05T11:57:02.519Z,17.35
2023-04-05T11:59:34.007Z,17.30
2023-04-05T12:02:03.791Z,17.25
2023-04-05T12:04:31.273Z,17.18
2023-04-05T12:07:17.916Z,17.16
2023-04-05T12:10:10.993Z,17.14
2023-04-05T12:12:40.292Z,17.13
2023-04-05T12:15:08.803Z,17.14
2023-04-05T12:17:42.748Z,17.20
2023-04-05T12:20:10.996Z,17.27
2023-04-05T12:22:38.311Z,17.33
2023-04-05T12:25:06.455Z,17.36
2023-04-05T12:27:33.537Z,17.36
2023-04-05T12:30:36.774Z,17.40
2023-04-05T12:33:08.525Z,17.42
2023-04-05T12:35:35.951Z,17.33
2023-04-05T12:38:05.632Z,17.26
2023-04-05T12:40:34.231Z,17.26
2023-04-05T12:43:08.591Z,17.27
2023-04-05T12:45:43.156Z,17.31
2023-04-05T12:48:14.476Z,17.33
2023-04-05T12:50:48.714Z,17.32
2023-04-05T12:53:23.052Z,17.30
2023-04-05T12:55:54.710Z,17.28
2023-04-05T12:58:23.684Z,17.25
2023-04-05T13:00:50.896Z,17.24
2023-04-05T13:03:21.005Z,17.25
2023-04-05T13:05:49.424Z,17.24
2023-04-05T13:08:20.654Z,17.25
2023-04-05T13:10:48.374Z,17.26
2023-04-05T13:13:15.928Z,17.24
2023-04-05T13:15:46.167Z,17.23
2023-04-05T13:18:15.051Z,17.23
2023-04-05T13:20:47.663Z,17.25
2023-04-05T13:23:15.806Z,17.25
2023-04-05T13:25:45.384Z,17.20
2023-04-05T13:28:12.459Z,17.14
2023-04-05T13:30:39.660Z,17.06
2023-04-05T13:33:07.121Z,17.03
2023-04-05T13:35:34.457Z,16.99
2023-04-05T13:38:04.324Z,16.95
2023-04-05T13:40:32.741Z,16.94
2023-04-05T13:43:00.040Z,16.93
2023-04-05T13:45:27.864Z,16.92
2023-04-05T13:47:55.104Z,16.91
2023-04-05T13:50:22.137Z,16.90
2023-04-05T13:52:49.630Z,16.86
2023-04-05T13:55:16.874Z,16.83
2023-04-05T13:57:45.540Z,16.84
2023-04-05T14:00:13.603Z,16.81
2023-04-05T14:02:44.359Z,16.82
2023-04-05T14:05:11.516Z,16.84
2023-04-05T14:07:38.890Z,16.83
2023-04-05T14:10:06.813Z,16.84
2023-04-05T14:12:34.540Z,16.84
2023-04-05T14:15:01.527Z,16.84
2023-04-05T14:17:29.879Z,16.86
2023-04-05T14:19:58.510Z,16.86
2023-04-05T14:22:26.285Z,16.87
2023-04-05T14:24:53.325Z,16.87
2023-04-05T14:27:26.764Z,16.87
2023-04-05T14:29:57.277Z,16.83
2023-04-05T14:32:25.619Z,16.82
2023-04-05T14:34:53.815Z,16.83
2023-04-05T14:37:21.147Z,16.83
2023-04-05T14:39:48.290Z,16.83
2023-04-05T14:42:15.437Z,16.83
2023-04-05T14:44:42.409Z,16.82
2023-04-05T14:47:10.029Z,16.81
2023-04-05T14:49:37.245Z,16.83
2023-04-05T14:52:04.422Z,16.82
2023-04-05T14:54:31.713Z,16.80
2023-04-05T14:56:59.160Z,16.78
2023-04-05T14:59:26.615Z,16.77
2023-04-05T15:01:53.587Z,16.76
2023-04-05T15:04:20.872Z,16.74
2023-04-05T15:06:48.175Z,16.74
2023-04-05T15:09:15.972Z,16.73
2023-04-05T15:11:46.149Z,16.71
2023-04-05T15:14:21.309Z,16.69
2023-04-05T15:16:55.864Z,16.66
2023-04-05T15:19:22.955Z,16.60
2023-04-05T15:21:50.105Z,16.57
2023-04-05T15:24:17.321Z,16.55
2023-04-05T15:26:44.761Z,16.51
2023-04-05T15:29:12.528Z,16.50
2023-04-05T15:31:41.577Z,16.49
2023-04-05T15:34:08.701Z,16.50
2023-04-05T15:36:37.459Z,16.49
2023-04-05T15:39:05.360Z,16.44
2023-04-05T15:41:33.523Z,16.42
2023-04-05T15:44:02.688Z,16.39
2023-04-05T15:46:30.436Z,16.34
2023-04-05T15:48:57.385Z,16.34
2023-04-05T15:51:24.309Z,16.32
2023-04-05T15:53:51.770Z,16.26
2023-04-05T15:56:18.744Z,16.23
2023-04-05T15:58:46.938Z,16.23
2023-04-05T16:01:14.889Z,16.19
2023-04-05T16:03:42.757Z,16.13
2023-04-05T16:06:09.684Z,16.07
2023-04-05T16:08:38.310Z,16.03
2023-04-05T16:11:08.458Z,15.98
2023-04-05T16:13:39.727Z,15.94
2023-04-05T16:16:06.828Z,15.89
2023-04-05T16:18:34.473Z,15.86
2023-04-05T16:21:05.556Z,15.85
2023-04-05T16:23:33.186Z,15.85
2023-04-05T16:26:00.215Z,15.80
2023-04-05T16:28:27.141Z,15.76
2023-04-05T16:30:55.801Z,15.73
2023-04-05T16:33:22.996Z,15.71
2023-04-05T16:35:50.302Z,15.70
2023-04-05T16:38:17.723Z,15.72
2023-04-05T16:40:45.398Z,15.70
2023-04-05T16:43:13.377Z,15.68
2023-04-05T16:45:40.451Z,15.62
2023-04-05T16:48:08.875Z,15.59
2023-04-05T16:50:36.426Z,15.54
2023-04-05T16:53:03.555Z,15.51
2023-04-05T16:55:30.858Z,15.50
2023-04-05T16:57:59.097Z,15.49
2023-04-05T17:00:27.197Z,15.48
2023-04-05T17:03:14.360Z,15.45
2023-04-05T17:05:41.968Z,15.44
2023-04-05T17:08:09.277Z,15.42
2023-04-05T17:10:36.860Z,15.40
2023-04-05T17:13:04.101Z,15.35
2023-04-05T17:15:31.581Z,15.30
2023-04-05T17:17:58.870Z,15.27
2023-04-05T17:20:26.041Z,15.26
2023-04-05T17:22:53.357Z,15.22
2023-04-05T17:25:20.534Z,15.16
2023-04-05T17:27:49.952Z,15.12
2023-04-05T17:30:17.205Z,15.09
2023-04-05T17:32:51.904Z,15.06
2023-04-05T17:35:19.197Z,15.05
2023-04-05T17:37:47.251Z,15.01
2023-04-05T17:40:14.538Z,15.00
2023-04-05T17:42:42.763Z,14.98
2023-04-05T17:45:10.220Z,14.95
2023-04-05T17:47:37.841Z,14.91
2023-04-05T17:50:05.768Z,14.89
2023-04-05T17:52:33.335Z,14.88
2023-04-05T17:55:00.327Z,14.86
2023-04-05T17:57:27.439Z,14.84
2023-04-05T17:59:54.783Z,14.84
2023-04-05T18:02:22.146Z,14.84
2023-04-05T18:04:49.706Z,14.86
2023-04-05T18:07:16.800Z,14.85
2023-04-05T18:09:46.621Z,14.84
2023-04-05T18:12:13.722Z,14.82
2023-04-05T18:14:40.777Z,14.76
2023-04-05T18:17:08.057Z,14.72
2023-04-05T18:19:35.201Z,14.71
2023-04-05T18:22:02.476Z,14.71
2023-04-05T18:24:29.719Z,14.71
2023-04-05T18:26:57.533Z,14.67
2023-04-05T18:29:29.441Z,14.64
2023-04-05T18:31:56.966Z,14.63
2023-04-05T18:34:24.390Z,14.61
2023-04-05T18:36:52.964Z,14.61
2023-04-05T18:39:21.008Z,14.58
2023-04-05T18:41:47.920Z,14.54
2023-04-05T18:44:14.976Z,14.47
2023-04-05T18:46:41.973Z,14.40
2023-04-05T18:49:10.067Z,14.41
2023-04-05T18:51:38.155Z,14.40
2023-04-05T18:54:05.418Z,14.38
2023-04-05T18:56:32.534Z,14.34
2023-04-05T18:58:59.516Z,14.30
2023-04-05T19:01:27.045Z,14.26
2023-04-05T19:03:54.386Z,14.23
2023-04-05T19:06:21.439Z,14.17
2023-04-05T19:08:48.637Z,14.11
2023-04-05T19:11:18.514Z,14.07
2023-04-05T19:13:45.917Z,14.06
2023-04-05T19:17:16.252Z,14.05
2023-04-05T19:19:43.089Z,13.95
2023-04-05T19:22:10.784Z,13.88
2023-04-05T19:24:39.695Z,13.82
2023-04-05T19:27:06.084Z,13.76
2023-04-05T19:29:33.973Z,13.68
2023-04-05T19:32:00.375Z,13.64
2023-04-05T19:34:26.965Z,13.58
2023-04-05T19:36:53.645Z,13.55
2023-04-05T19:39:25.363Z,13.52
2023-04-05T19:41:57.463Z,13.46
2023-04-05T19:44:54.362Z,13.42
2023-04-05T19:47:25.988Z,13.38
2023-04-05T19:49:55.341Z,13.34
2023-04-05T19:52:36.353Z,13.30
2023-04-05T19:55:30.761Z,13.28
2023-04-05T19:58:01.371Z,13.25
2023-04-05T20:00:32.265Z,13.22
2023-04-05T20:03:00.547Z,13.21
2023-04-05T20:05:42.597Z,13.20
2023-04-05T20:08:09.273Z,13.16
2023-04-05T20:10:40.710Z,13.12
2023-04-05T20:13:11.417Z,13.11
2023-04-05T20:15:38.059Z,13.09
2023-04-05T20:18:05.719Z,13.05
2023-04-05T20:20:35.127Z,13.02
2023-04-05T20:23:06.036Z,12.99
2023-04-05T20:25:42.147Z,12.92
2023-04-05T20:28:27.073Z,12.90
2023-04-05T20:30:53.724Z,12.89
2023-04-05T20:34:01.681Z,12.91
2023-04-05T20:36:32.309Z,12.90
2023-04-05T20:39:00.766Z,12.89
2023-04-05T20:41:27.668Z,12.88
2023-04-05T20:43:55.745Z,12.87
2023-04-05T20:46:22.635Z,12.86
2023-04-05T20:48:49.360Z,12.87
2023-04-05T20:51:18.206Z,12.84
2023-04-05T20:53:44.866Z,12.82
2023-04-05T20:56:11.999Z,12.82
2023-04-05T20:58:40.996Z,12.83
2023-04-05T21:01:07.589Z,12.79
2023-04-05T21:03:41.355Z,12.76
2023-04-05T21:06:08.894Z,12.75
2023-04-05T21:08:36.698Z,12.74
2023-04-05T21:11:06.108Z,12.72
2023-04-05T21:13:34.131Z,12.70
2023-04-05T21:16:00.877Z,12.69
2023-04-05T21:18:30.194Z,12.74
2023-04-05T21:20:57.018Z,12.73
2023-04-05T21:23:27.491Z,12.71
2023-04-05T21:25:57.591Z,12.70
2023-04-05T21:28:24.308Z,12.72
2023-04-05T21:30:52.500Z,12.72
2023-04-05T21:33:19.530Z,12.72
2023-04-05T21:35:46.126Z,12.74
2023-04-05T21:38:15.626Z,12.74
2023-04-05T21:40:44.146Z,12.72
2023-04-05T21:43:15.660Z,12.70
2023-04-05T21:45:43.256Z,12.71
2023-04-05T21:48:10.167Z,12.73
2023-04-05T21:50:37.114Z,12.72
2023-04-05T21:53:06.675Z,12.71
2023-04-05T21:55:34.768Z,12.69
2023-04-05T21:58:02.872Z,12.71
2023-04-05T22:00:29.581Z,12.69
2023-04-05T22:02:57.911Z,12.68
2023-04-05T22:05:36.154Z,12.68
2023-04-05T22:08:05.249Z,12.67
2023-04-05T22:10:32.216Z,12.63
2023-04-05T22:12:59.279Z,12.61
2023-04-05T22:15:25.947Z,12.59
2023-04-05T22:17:52.530Z,12.58
2023-04-05T22:20:19.328Z,12.54
2023-04-05T22:22:47.364Z,12.50
2023-04-05T22:25:15.986Z,12.47
2023-04-05T22:27:43.476Z,12.45
2023-04-05T22:30:11.097Z,12.43
2023-04-05T22:32:39.415Z,12.40
2023-04-05T22:35:06.662Z,12.36
2023-04-05T22:37:36.115Z,12.35
2023-04-05T22:40:06.803Z,12.32
2023-04-05T22:42:34.414Z,12.29
2023-04-05T22:45:02.898Z,12.27
2023-04-05T22:47:29.489Z,12.27
2023-04-05T22:49:56.686Z,12.23
2023-04-05T22:52:23.097Z,12.20
2023-04-05T22:54:49.495Z,12.17
2023-04-05T22:57:15.982Z,12.14
2023-04-05T22:59:42.663Z,12.15
2023-04-05T23:02:13.461Z,12.13
2023-04-05T23:04:40.818Z,12.10
2023-04-05T23:07:07.474Z,12.06
2023-04-05T23:09:33.873Z,12.06
2023-04-05T23:12:00.281Z,12.03
2023-04-05T23:14:27.051Z,12.01
2023-04-05T23:16:53.515Z,12.00
2023-04-05T23:19:19.960Z,12.00
2023-04-05T23:21:46.355Z,12.01
2023-04-05T23:24:12.990Z,11.99
2023-04-05T23:26:40.141Z,11.98
2023-04-05T23:29:07.210Z,11.98
2023-04-05T23:31:34.434Z,11.99
2023-04-05T23:34:01.449Z,11.98
2023-04-05T23:36:30.890Z,11.94
2023-04-05T23:38:59.588Z,11.94
2023-04-05T23:41:26.565Z,11.95
2023-04-05T23:43:53.258Z,11.94
2023-04-05T23:46:19.838Z,11.93
2023-04-05T23:48:46.678Z,11.89
2023-04-05T23:51:13.608Z,11.92
2023-04-05T23:53:40.017Z,11.92
2023-04-05T23:56:06.870Z,11.91
2023-04-05T23:58:33.392Z,11.89
